sensor_id;sensor_type;location;lat;lon;timestamp;P1;durP1;ratioP1;P2;durP2;ratioP2
64816;SDS011;69411;45.656;11.740;2023-04-25T00:01:46;4.22;;;2.90;;
64816;SDS011;69411;45.656;11.740;2023-04-25T00:04:12;4.22;;;3.00;;
64816;SDS011;69411;45.656;11.740;2023-04-25T00:06:38;5.15;;;3.20;;
64816;SDS011;69411;45.656;11.740;2023-04-25T00:09:04;5.28;;;3.53;;
64816;SDS011;69411;45.656;11.740;2023-04-25T00:11:35;6.82;;;4.25;;
64816;SDS011;69411;45.656;11.740;2023-04-25T00:14:02;6.68;;;3.88;;
64816;SDS011;69411;45.656;11.740;2023-04-25T00:16:29;6.55;;;3.70;;
64816;SDS011;69411;45.656;11.740;2023-04-25T00:18:59;8.43;;;3.20;;
64816;SDS011;69411;45.656;11.740;2023-04-25T00:21:26;4.68;;;3.30;;
64816;SDS011;69411;45.656;11.740;2023-04-25T00:23:53;6.05;;;3.42;;
64816;SDS011;69411;45.656;11.740;2023-04-25T00:26:20;6.75;;;3.60;;
64816;SDS011;69411;45.656;11.740;2023-04-25T00:28:46;5.47;;;3.40;;
64816;SDS011;69411;45.656;11.740;2023-04-25T00:31:12;6.18;;;3.45;;
64816;SDS011;69411;45.656;11.740;2023-04-25T00:33:38;6.40;;;3.53;;
64816;SDS011;69411;45.656;11.740;2023-04-25T00:36:05;4.65;;;3.55;;
64816;SDS011;69411;45.656;11.740;2023-04-25T00:38:31;4.90;;;2.90;;
64816;SDS011;69411;45.656;11.740;2023-04-25T00:40:57;5.30;;;3.28;;
64816;SDS011;69411;45.656;11.740;2023-04-25T00:43:26;7.45;;;3.83;;
64816;SDS011;69411;45.656;11.740;2023-04-25T00:45:53;5.45;;;3.45;;
64816;SDS011;69411;45.656;11.740;2023-04-25T00:48:22;6.47;;;4.03;;
64816;SDS011;69411;45.656;11.740;2023-04-25T00:50:51;5.68;;;3.53;;
64816;SDS011;69411;45.656;11.740;2023-04-25T00:53:20;5.97;;;3.55;;
64816;SDS011;69411;45.656;11.740;2023-04-25T00:55:47;4.75;;;3.20;;
64816;SDS011;69411;45.656;11.740;2023-04-25T00:58:16;4.25;;;2.97;;
64816;SDS011;69411;45.656;11.740;2023-04-25T01:00:46;4.22;;;2.80;;
64816;SDS011;69411;45.656;11.740;2023-04-25T01:03:13;4.32;;;3.10;;
64816;SDS011;69411;45.656;11.740;2023-04-25T01:05:42;5.05;;;3.40;;
64816;SDS011;69411;45.656;11.740;2023-04-25T01:08:09;5.63;;;3.58;;
64816;SDS011;69411;45.656;11.740;2023-04-25T01:10:35;5.55;;;3.47;;
64816;SDS011;69411;45.656;11.740;2023-04-25T01:13:02;4.88;;;3.25;;
64816;SDS011;69411;45.656;11.740;2023-04-25T01:15:28;4.60;;;3.30;;
64816;SDS011;69411;45.656;11.740;2023-04-25T01:17:55;4.35;;;3.03;;
64816;SDS011;69411;45.656;11.740;2023-04-25T01:20:22;4.50;;;3.22;;
64816;SDS011;69411;45.656;11.740;2023-04-25T01:22:48;6.10;;;3.35;;
64816;SDS011;69411;45.656;11.740;2023-04-25T01:25:15;4.57;;;3.17;;
64816;SDS011;69411;45.656;11.740;2023-04-25T01:27:42;3.72;;;2.67;;
64816;SDS011;69411;45.656;11.740;2023-04-25T01:30:08;4.90;;;3.05;;
64816;SDS011;69411;45.656;11.740;2023-04-25T01:32:34;3.83;;;2.50;;
64816;SDS011;69411;45.656;11.740;2023-04-25T01:35:08;5.85;;;2.90;;
64816;SDS011;69411;45.656;11.740;2023-04-25T01:37:38;3.10;;;2.60;;
64816;SDS011;69411;45.656;11.740;2023-04-25T01:40:06;4.10;;;2.90;;
64816;SDS011;69411;45.656;11.740;2023-04-25T01:42:34;3.83;;;3.03;;
64816;SDS011;69411;45.656;11.740;2023-04-25T01:45:01;4.07;;;2.75;;
64816;SDS011;69411;45.656;11.740;2023-04-25T01:47:28;5.15;;;3.08;;
64816;SDS011;69411;45.656;11.740;2023-04-25T01:49:54;3.42;;;2.63;;
64816;SDS011;69411;45.656;11.740;2023-04-25T01:52:20;4.78;;;3.00;;
64816;SDS011;69411;45.656;11.740;2023-04-25T01:54:46;4.03;;;2.70;;
64816;SDS011;69411;45.656;11.740;2023-04-25T01:57:13;3.13;;;2.50;;
64816;SDS011;69411;45.656;11.740;2023-04-25T01:59:39;4.35;;;2.47;;
64816;SDS011;69411;45.656;11.740;2023-04-25T02:02:06;2.80;;;2.42;;
64816;SDS011;69411;45.656;11.740;2023-04-25T02:04:32;4.38;;;2.50;;
64816;SDS011;69411;45.656;11.740;2023-04-25T02:06:58;3.25;;;2.55;;
64816;SDS011;69411;45.656;11.740;2023-04-25T02:09:24;2.53;;;2.03;;
64816;SDS011;69411;45.656;11.740;2023-04-25T02:11:50;2.25;;;2.00;;
64816;SDS011;69411;45.656;11.740;2023-04-25T02:14:16;2.35;;;1.88;;
64816;SDS011;69411;45.656;11.740;2023-04-25T02:16:42;2.42;;;2.13;;
64816;SDS011;69411;45.656;11.740;2023-04-25T02:19:09;2.22;;;2.03;;
64816;SDS011;69411;45.656;11.740;2023-04-25T02:21:36;2.47;;;1.98;;
64816;SDS011;69411;45.656;11.740;2023-04-25T02:24:02;2.25;;;2.05;;
64816;SDS011;69411;45.656;11.740;2023-04-25T02:26:29;5.10;;;2.63;;
64816;SDS011;69411;45.656;11.740;2023-04-25T02:28:58;2.80;;;1.90;;
64816;SDS011;69411;45.656;11.740;2023-04-25T02:31:23;3.25;;;2.42;;
64816;SDS011;69411;45.656;11.740;2023-04-25T02:33:49;3.88;;;2.33;;
64816;SDS011;69411;45.656;11.740;2023-04-25T02:36:15;3.60;;;2.67;;
64816;SDS011;69411;45.656;11.740;2023-04-25T02:38:41;3.80;;;2.40;;
64816;SDS011;69411;45.656;11.740;2023-04-25T02:41:07;2.80;;;1.80;;
64816;SDS011;69411;45.656;11.740;2023-04-25T02:43:33;4.45;;;2.50;;
64816;SDS011;69411;45.656;11.740;2023-04-25T02:45:59;3.47;;;2.30;;
64816;SDS011;69411;45.656;11.740;2023-04-25T02:48:25;3.30;;;2.50;;
64816;SDS011;69411;45.656;11.740;2023-04-25T02:50:51;4.55;;;2.78;;
64816;SDS011;69411;45.656;11.740;2023-04-25T02:53:17;2.15;;;1.80;;
64816;SDS011;69411;45.656;11.740;2023-04-25T02:55:43;1.98;;;1.67;;
64816;SDS011;69411;45.656;11.740;2023-04-25T02:58:09;2.35;;;2.13;;
64816;SDS011;69411;45.656;11.740;2023-04-25T03:00:35;3.33;;;2.17;;
64816;SDS011;69411;45.656;11.740;2023-04-25T03:03:01;2.97;;;2.08;;
64816;SDS011;69411;45.656;11.740;2023-04-25T03:05:27;2.58;;;1.88;;
64816;SDS011;69411;45.656;11.740;2023-04-25T03:07:53;2.40;;;2.10;;
64816;SDS011;69411;45.656;11.740;2023-04-25T03:10:19;2.08;;;1.85;;
64816;SDS011;69411;45.656;11.740;2023-04-25T03:12:44;2.25;;;1.80;;
64816;SDS011;69411;45.656;11.740;2023-04-25T03:15:10;2.17;;;1.90;;
64816;SDS011;69411;45.656;11.740;2023-04-25T03:17:36;3.88;;;1.92;;
64816;SDS011;69411;45.656;11.740;2023-04-25T03:20:03;2.20;;;1.90;;
64816;SDS011;69411;45.656;11.740;2023-04-25T03:22:29;1.88;;;1.73;;
64816;SDS011;69411;45.656;11.740;2023-04-25T03:24:55;2.45;;;2.00;;
64816;SDS011;69411;45.656;11.740;2023-04-25T03:27:21;2.20;;;1.90;;
64816;SDS011;69411;45.656;11.740;2023-04-25T03:29:47;2.05;;;1.90;;
64816;SDS011;69411;45.656;11.740;2023-04-25T03:32:13;2.78;;;2.20;;
64816;SDS011;69411;45.656;11.740;2023-04-25T03:34:38;3.00;;;2.00;;
64816;SDS011;69411;45.656;11.740;2023-04-25T03:37:05;4.57;;;2.30;;
64816;SDS011;69411;45.656;11.740;2023-04-25T03:39:31;4.93;;;2.60;;
64816;SDS011;69411;45.656;11.740;2023-04-25T03:41:56;2.97;;;2.30;;
64816;SDS011;69411;45.656;11.740;2023-04-25T03:44:22;4.07;;;2.65;;
64816;SDS011;69411;45.656;11.740;2023-04-25T03:46:49;3.83;;;2.65;;
64816;SDS011;69411;45.656;11.740;2023-04-25T03:49:16;4.15;;;3.10;;
64816;SDS011;69411;45.656;11.740;2023-04-25T03:51:42;3.88;;;2.70;;
64816;SDS011;69411;45.656;11.740;2023-04-25T03:54:07;4.80;;;3.03;;
64816;SDS011;69411;45.656;11.740;2023-04-25T03:56:33;5.10;;;2.70;;
64816;SDS011;69411;45.656;11.740;2023-04-25T03:58:59;4.38;;;2.67;;
64816;SDS011;69411;45.656;11.740;2023-04-25T04:01:25;4.60;;;2.42;;
64816;SDS011;69411;45.656;11.740;2023-04-25T04:03:51;4.85;;;2.72;;
64816;SDS011;69411;45.656;11.740;2023-04-25T04:06:17;4.63;;;2.80;;
64816;SDS011;69411;45.656;11.740;2023-04-25T04:08:43;3.97;;;2.70;;
64816;SDS011;69411;45.656;11.740;2023-04-25T04:11:09;3.95;;;2.50;;
64816;SDS011;69411;45.656;11.740;2023-04-25T04:13:35;5.22;;;2.40;;
64816;SDS011;69411;45.656;11.740;2023-04-25T04:16:01;2.78;;;2.28;;
64816;SDS011;69411;45.656;11.740;2023-04-25T04:18:29;3.45;;;2.30;;
64816;SDS011;69411;45.656;11.740;2023-04-25T04:20:55;2.35;;;1.98;;
64816;SDS011;69411;45.656;11.740;2023-04-25T04:23:23;2.63;;;2.30;;
64816;SDS011;69411;45.656;11.740;2023-04-25T04:25:49;2.38;;;1.88;;
64816;SDS011;69411;45.656;11.740;2023-04-25T04:28:15;2.40;;;2.20;;
64816;SDS011;69411;45.656;11.740;2023-04-25T04:30:41;3.90;;;2.80;;
64816;SDS011;69411;45.656;11.740;2023-04-25T04:33:08;3.70;;;2.70;;
64816;SDS011;69411;45.656;11.740;2023-04-25T04:35:34;3.50;;;2.50;;
64816;SDS011;69411;45.656;11.740;2023-04-25T04:38:00;2.75;;;2.30;;
64816;SDS011;69411;45.656;11.740;2023-04-25T04:40:26;2.67;;;2.10;;
64816;SDS011;69411;45.656;11.740;2023-04-25T04:42:52;3.03;;;2.08;;
64816;SDS011;69411;45.656;11.740;2023-04-25T04:45:18;2.75;;;1.65;;
64816;SDS011;69411;45.656;11.740;2023-04-25T04:47:44;2.13;;;1.67;;
64816;SDS011;69411;45.656;11.740;2023-04-25T04:50:10;2.00;;;1.80;;
64816;SDS011;69411;45.656;11.740;2023-04-25T04:52:36;2.53;;;2.10;;
64816;SDS011;69411;45.656;11.740;2023-04-25T04:55:04;2.45;;;2.05;;
64816;SDS011;69411;45.656;11.740;2023-04-25T04:57:31;2.47;;;2.00;;
64816;SDS011;69411;45.656;11.740;2023-04-25T04:59:58;3.40;;;2.20;;
64816;SDS011;69411;45.656;11.740;2023-04-25T05:02:24;4.10;;;2.63;;
64816;SDS011;69411;45.656;11.740;2023-04-25T05:04:50;2.95;;;2.40;;
64816;SDS011;69411;45.656;11.740;2023-04-25T05:07:17;3.13;;;2.10;;
64816;SDS011;69411;45.656;11.740;2023-04-25T05:09:44;3.10;;;1.80;;
64816;SDS011;69411;45.656;11.740;2023-04-25T05:12:09;2.65;;;2.05;;
64816;SDS011;69411;45.656;11.740;2023-04-25T05:14:35;1.83;;;1.73;;
64816;SDS011;69411;45.656;11.740;2023-04-25T05:17:01;2.88;;;2.25;;
64816;SDS011;69411;45.656;11.740;2023-04-25T05:19:30;3.67;;;2.60;;
64816;SDS011;69411;45.656;11.740;2023-04-25T05:21:56;2.47;;;2.20;;
64816;SDS011;69411;45.656;11.740;2023-04-25T05:24:21;3.53;;;2.22;;
64816;SDS011;69411;45.656;11.740;2023-04-25T05:26:48;2.92;;;1.90;;
64816;SDS011;69411;45.656;11.740;2023-04-25T05:29:13;2.97;;;2.00;;
64816;SDS011;69411;45.656;11.740;2023-04-25T05:31:39;2.70;;;2.20;;
64816;SDS011;69411;45.656;11.740;2023-04-25T05:34:05;2.40;;;2.10;;
64816;SDS011;69411;45.656;11.740;2023-04-25T05:36:31;2.90;;;2.30;;
64816;SDS011;69411;45.656;11.740;2023-04-25T05:38:57;2.13;;;1.92;;
64816;SDS011;69411;45.656;11.740;2023-04-25T05:41:23;2.80;;;1.88;;
64816;SDS011;69411;45.656;11.740;2023-04-25T05:43:49;2.92;;;1.85;;
64816;SDS011;69411;45.656;11.740;2023-04-25T05:46:15;2.75;;;2.20;;
64816;SDS011;69411;45.656;11.740;2023-04-25T05:48:45;4.13;;;2.17;;
64816;SDS011;69411;45.656;11.740;2023-04-25T05:51:11;3.38;;;2.00;;
64816;SDS011;69411;45.656;11.740;2023-04-25T05:53:37;3.28;;;2.20;;
64816;SDS011;69411;45.656;11.740;2023-04-25T05:56:02;2.78;;;2.40;;
64816;SDS011;69411;45.656;11.740;2023-04-25T05:58:28;3.03;;;1.92;;
64816;SDS011;69411;45.656;11.740;2023-04-25T06:00:55;4.05;;;2.47;;
64816;SDS011;69411;45.656;11.740;2023-04-25T06:03:21;2.55;;;2.35;;
64816;SDS011;69411;45.656;11.740;2023-04-25T06:05:46;4.95;;;3.15;;
64816;SDS011;69411;45.656;11.740;2023-04-25T06:08:12;3.90;;;2.90;;
64816;SDS011;69411;45.656;11.740;2023-04-25T06:10:38;5.15;;;3.20;;
64816;SDS011;69411;45.656;11.740;2023-04-25T06:13:04;3.25;;;2.63;;
64816;SDS011;69411;45.656;11.740;2023-04-25T06:15:30;3.88;;;2.67;;
64816;SDS011;69411;45.656;11.740;2023-04-25T06:17:58;3.35;;;2.47;;
64816;SDS011;69411;45.656;11.740;2023-04-25T06:20:24;2.50;;;2.10;;
64816;SDS011;69411;45.656;11.740;2023-04-25T06:22:50;2.45;;;1.95;;
64816;SDS011;69411;45.656;11.740;2023-04-25T06:25:17;3.42;;;2.22;;
64816;SDS011;69411;45.656;11.740;2023-04-25T06:27:43;4.13;;;2.80;;
64816;SDS011;69411;45.656;11.740;2023-04-25T06:30:09;4.57;;;2.80;;
64816;SDS011;69411;45.656;11.740;2023-04-25T06:32:37;3.92;;;2.78;;
64816;SDS011;69411;45.656;11.740;2023-04-25T06:35:04;5.28;;;3.75;;
64816;SDS011;69411;45.656;11.740;2023-04-25T06:37:30;5.13;;;3.50;;
64816;SDS011;69411;45.656;11.740;2023-04-25T06:39:56;5.65;;;3.42;;
64816;SDS011;69411;45.656;11.740;2023-04-25T06:42:22;5.43;;;3.30;;
64816;SDS011;69411;45.656;11.740;2023-04-25T06:44:48;3.30;;;2.63;;
64816;SDS011;69411;45.656;11.740;2023-04-25T06:47:14;3.50;;;2.85;;
64816;SDS011;69411;45.656;11.740;2023-04-25T06:49:40;4.25;;;2.78;;
64816;SDS011;69411;45.656;11.740;2023-04-25T06:52:06;5.03;;;2.78;;
64816;SDS011;69411;45.656;11.740;2023-04-25T06:54:32;4.68;;;2.80;;
64816;SDS011;69411;45.656;11.740;2023-04-25T06:56:58;4.50;;;2.70;;
64816;SDS011;69411;45.656;11.740;2023-04-25T06:59:26;3.10;;;2.58;;
64816;SDS011;69411;45.656;11.740;2023-04-25T07:01:52;3.42;;;2.67;;
64816;SDS011;69411;45.656;11.740;2023-04-25T07:04:17;3.45;;;2.40;;
64816;SDS011;69411;45.656;11.740;2023-04-25T07:06:44;5.53;;;2.65;;
64816;SDS011;69411;45.656;11.740;2023-04-25T07:09:10;4.40;;;2.20;;
64816;SDS011;69411;45.656;11.740;2023-04-25T07:11:36;3.88;;;2.30;;
64816;SDS011;69411;45.656;11.740;2023-04-25T07:14:02;3.25;;;2.60;;
64816;SDS011;69411;45.656;11.740;2023-04-25T07:16:28;5.57;;;3.05;;
64816;SDS011;69411;45.656;11.740;2023-04-25T07:18:55;3.67;;;2.85;;
64816;SDS011;69411;45.656;11.740;2023-04-25T07:21:20;3.05;;;2.30;;
64816;SDS011;69411;45.656;11.740;2023-04-25T07:23:47;2.80;;;2.30;;
64816;SDS011;69411;45.656;11.740;2023-04-25T07:26:13;4.93;;;3.10;;
64816;SDS011;69411;45.656;11.740;2023-04-25T07:28:38;3.92;;;2.50;;
64816;SDS011;69411;45.656;11.740;2023-04-25T07:31:04;3.85;;;2.60;;
64816;SDS011;69411;45.656;11.740;2023-04-25T07:33:30;5.88;;;2.97;;
64816;SDS011;69411;45.656;11.740;2023-04-25T07:35:56;3.80;;;2.80;;
64816;SDS011;69411;45.656;11.740;2023-04-25T07:38:22;4.45;;;2.78;;
64816;SDS011;69411;45.656;11.740;2023-04-25T07:40:48;6.63;;;3.60;;
64816;SDS011;69411;45.656;11.740;2023-04-25T07:43:14;4.43;;;3.65;;
64816;SDS011;69411;45.656;11.740;2023-04-25T07:45:44;3.80;;;2.70;;
64816;SDS011;69411;45.656;11.740;2023-04-25T07:48:11;4.15;;;2.60;;
64816;SDS011;69411;45.656;11.740;2023-04-25T07:50:41;5.40;;;2.78;;
64816;SDS011;69411;45.656;11.740;2023-04-25T07:53:07;4.32;;;2.90;;
64816;SDS011;69411;45.656;11.740;2023-04-25T07:55:36;6.70;;;2.95;;
64816;SDS011;69411;45.656;11.740;2023-04-25T07:58:05;4.25;;;3.08;;
64816;SDS011;69411;45.656;11.740;2023-04-25T08:00:34;5.88;;;3.53;;
64816;SDS011;69411;45.656;11.740;2023-04-25T08:03:00;3.15;;;2.78;;
64816;SDS011;69411;45.656;11.740;2023-04-25T08:05:26;5.05;;;3.10;;
64816;SDS011;69411;45.656;11.740;2023-04-25T08:07:52;5.10;;;3.05;;
64816;SDS011;69411;45.656;11.740;2023-04-25T08:10:18;5.18;;;3.50;;
64816;SDS011;69411;45.656;11.740;2023-04-25T08:12:43;6.00;;;3.17;;
64816;SDS011;69411;45.656;11.740;2023-04-25T08:15:09;3.83;;;2.70;;
64816;SDS011;69411;45.656;11.740;2023-04-25T08:17:35;5.30;;;3.42;;
64816;SDS011;69411;45.656;11.740;2023-04-25T08:20:02;5.97;;;3.17;;
64816;SDS011;69411;45.656;11.740;2023-04-25T08:22:30;4.95;;;3.20;;
64816;SDS011;69411;45.656;11.740;2023-04-25T08:24:57;4.10;;;2.70;;
64816;SDS011;69411;45.656;11.740;2023-04-25T08:27:22;5.22;;;2.88;;
64816;SDS011;69411;45.656;11.740;2023-04-25T08:29:49;3.67;;;2.90;;
64816;SDS011;69411;45.656;11.740;2023-04-25T08:32:16;4.78;;;3.15;;
64816;SDS011;69411;45.656;11.740;2023-04-25T08:34:42;3.90;;;2.70;;
64816;SDS011;69411;45.656;11.740;2023-04-25T08:37:09;6.20;;;3.75;;
64816;SDS011;69411;45.656;11.740;2023-04-25T08:39:36;7.60;;;4.18;;
64816;SDS011;69411;45.656;11.740;2023-04-25T08:42:05;6.55;;;3.33;;
64816;SDS011;69411;45.656;11.740;2023-04-25T08:44:35;4.85;;;2.72;;
64816;SDS011;69411;45.656;11.740;2023-04-25T08:47:02;3.97;;;2.78;;
64816;SDS011;69411;45.656;11.740;2023-04-25T08:49:33;3.58;;;2.63;;
64816;SDS011;69411;45.656;11.740;2023-04-25T08:52:00;4.07;;;2.60;;
64816;SDS011;69411;45.656;11.740;2023-04-25T08:54:28;5.28;;;3.25;;
64816;SDS011;69411;45.656;11.740;2023-04-25T08:56:57;4.82;;;3.38;;
64816;SDS011;69411;45.656;11.740;2023-04-25T08:59:29;4.57;;;3.00;;
64816;SDS011;69411;45.656;11.740;2023-04-25T09:01:57;3.92;;;2.75;;
64816;SDS011;69411;45.656;11.740;2023-04-25T09:04:23;3.53;;;2.42;;
64816;SDS011;69411;45.656;11.740;2023-04-25T09:06:49;2.25;;;1.80;;
64816;SDS011;69411;45.656;11.740;2023-04-25T09:09:15;2.30;;;1.80;;
64816;SDS011;69411;45.656;11.740;2023-04-25T09:11:41;2.95;;;1.70;;
64816;SDS011;69411;45.656;11.740;2023-04-25T09:19:22;1.70;;;1.50;;
64816;SDS011;69411;45.656;11.740;2023-04-25T09:24:44;2.42;;;1.98;;
64816;SDS011;69411;45.656;11.740;2023-04-25T09:27:19;3.25;;;2.03;;
64816;SDS011;69411;45.656;11.740;2023-04-25T09:29:48;1.90;;;1.37;;
64816;SDS011;69411;45.656;11.740;2023-04-25T09:32:23;1.75;;;1.20;;
64816;SDS011;69411;45.656;11.740;2023-04-25T09:39:47;1.95;;;1.73;;
64816;SDS011;69411;45.656;11.740;2023-04-25T09:42:21;1.95;;;1.35;;
64816;SDS011;69411;45.656;11.740;2023-04-25T09:44:49;1.95;;;1.58;;
64816;SDS011;69411;45.656;11.740;2023-04-25T09:47:17;2.58;;;1.70;;
64816;SDS011;69411;45.656;11.740;2023-04-25T09:49:46;1.58;;;1.48;;
64816;SDS011;69411;45.656;11.740;2023-04-25T09:52:14;2.60;;;2.40;;
64816;SDS011;69411;45.656;11.740;2023-04-25T09:54:41;1.63;;;1.40;;
64816;SDS011;69411;45.656;11.740;2023-04-25T09:57:17;2.90;;;2.10;;
64816;SDS011;69411;45.656;11.740;2023-04-25T09:59:47;2.95;;;2.03;;
64816;SDS011;69411;45.656;11.740;2023-04-25T10:02:18;1.50;;;1.40;;
64816;SDS011;69411;45.656;11.740;2023-04-25T10:04:49;2.13;;;1.63;;
64816;SDS011;69411;45.656;11.740;2023-04-25T10:07:18;2.85;;;1.60;;
64816;SDS011;69411;45.656;11.740;2023-04-25T10:09:47;2.47;;;2.00;;
64816;SDS011;69411;45.656;11.740;2023-04-25T10:12:15;1.70;;;1.55;;
64816;SDS011;69411;45.656;11.740;2023-04-25T10:14:42;1.70;;;1.60;;
64816;SDS011;69411;45.656;11.740;2023-04-25T10:17:09;2.10;;;1.90;;
64816;SDS011;69411;45.656;11.740;2023-04-25T10:19:36;3.00;;;2.22;;
64816;SDS011;69411;45.656;11.740;2023-04-25T10:24:35;2.97;;;2.20;;
64816;SDS011;69411;45.656;11.740;2023-04-25T10:27:02;3.60;;;1.77;;
64816;SDS011;69411;45.656;11.740;2023-04-25T10:29:28;1.80;;;1.70;;
64816;SDS011;69411;45.656;11.740;2023-04-25T10:31:54;2.53;;;1.90;;
64816;SDS011;69411;45.656;11.740;2023-04-25T10:34:25;2.85;;;1.88;;
64816;SDS011;69411;45.656;11.740;2023-04-25T10:37:08;1.90;;;1.60;;
64816;SDS011;69411;45.656;11.740;2023-04-25T10:39:35;1.80;;;1.70;;
64816;SDS011;69411;45.656;11.740;2023-04-25T10:42:03;2.00;;;1.77;;
64816;SDS011;69411;45.656;11.740;2023-04-25T10:44:29;1.50;;;1.40;;
64816;SDS011;69411;45.656;11.740;2023-04-25T10:46:56;2.85;;;1.50;;
64816;SDS011;69411;45.656;11.740;2023-04-25T10:49:33;2.20;;;1.77;;
64816;SDS011;69411;45.656;11.740;2023-04-25T10:54:48;2.25;;;1.77;;
64816;SDS011;69411;45.656;11.740;2023-04-25T11:02:37;2.33;;;2.10;;
64816;SDS011;69411;45.656;11.740;2023-04-25T11:05:08;3.65;;;2.58;;
64816;SDS011;69411;45.656;11.740;2023-04-25T11:07:40;2.95;;;2.40;;
64816;SDS011;69411;45.656;11.740;2023-04-25T11:10:14;1.70;;;1.60;;
64816;SDS011;69411;45.656;11.740;2023-04-25T11:12:40;1.98;;;1.80;;
64816;SDS011;69411;45.656;11.740;2023-04-25T11:15:06;2.70;;;1.88;;
64816;SDS011;69411;45.656;11.740;2023-04-25T11:17:33;2.30;;;2.10;;
64816;SDS011;69411;45.656;11.740;2023-04-25T11:19:59;1.70;;;1.55;;
64816;SDS011;69411;45.656;11.740;2023-04-25T11:22:26;2.28;;;1.90;;
64816;SDS011;69411;45.656;11.740;2023-04-25T11:24:52;4.82;;;1.80;;
64816;SDS011;69411;45.656;11.740;2023-04-25T11:27:18;1.80;;;1.50;;
64816;SDS011;69411;45.656;11.740;2023-04-25T11:29:46;3.53;;;1.67;;
64816;SDS011;69411;45.656;11.740;2023-04-25T11:32:14;2.25;;;1.98;;
64816;SDS011;69411;45.656;11.740;2023-04-25T11:34:42;1.50;;;1.40;;
64816;SDS011;69411;45.656;11.740;2023-04-25T11:37:10;2.67;;;2.13;;
64816;SDS011;69411;45.656;11.740;2023-04-25T11:39:42;3.35;;;2.22;;
64816;SDS011;69411;45.656;11.740;2023-04-25T11:42:10;2.70;;;2.17;;
64816;SDS011;69411;45.656;11.740;2023-04-25T11:44:37;3.53;;;2.00;;
64816;SDS011;69411;45.656;11.740;2023-04-25T11:47:04;1.98;;;1.80;;
64816;SDS011;69411;45.656;11.740;2023-04-25T11:49:31;2.13;;;1.73;;
64816;SDS011;69411;45.656;11.740;2023-04-25T11:51:57;1.55;;;1.30;;
64816;SDS011;69411;45.656;11.740;2023-04-25T11:54:23;2.22;;;1.60;;
64816;SDS011;69411;45.656;11.740;2023-04-25T11:56:49;2.92;;;1.67;;
64816;SDS011;69411;45.656;11.740;2023-04-25T11:59:15;2.38;;;1.45;;
64816;SDS011;69411;45.656;11.740;2023-04-25T12:01:47;1.40;;;1.30;;
64816;SDS011;69411;45.656;11.740;2023-04-25T12:04:15;1.83;;;1.50;;
64816;SDS011;69411;45.656;11.740;2023-04-25T12:06:43;1.98;;;1.70;;
64816;SDS011;69411;45.656;11.740;2023-04-25T12:09:14;1.40;;;1.30;;
64816;SDS011;69411;45.656;11.740;2023-04-25T12:14:09;1.35;;;1.25;;
64816;SDS011;69411;45.656;11.740;2023-04-25T12:19:14;1.20;;;1.10;;
64816;SDS011;69411;45.656;11.740;2023-04-25T12:21:42;1.50;;;1.40;;
64816;SDS011;69411;45.656;11.740;2023-04-25T12:26:51;2.40;;;1.30;;
64816;SDS011;69411;45.656;11.740;2023-04-25T12:29:26;1.63;;;1.35;;
64816;SDS011;69411;45.656;11.740;2023-04-25T12:31:54;1.60;;;1.50;;
64816;SDS011;69411;45.656;11.740;2023-04-25T12:34:22;1.67;;;1.50;;
64816;SDS011;69411;45.656;11.740;2023-04-25T12:36:50;2.38;;;1.73;;
64816;SDS011;69411;45.656;11.740;2023-04-25T12:39:40;2.35;;;1.42;;
64816;SDS011;69411;45.656;11.740;2023-04-25T12:42:06;3.97;;;1.50;;
64816;SDS011;69411;45.656;11.740;2023-04-25T12:44:38;3.45;;;1.80;;
64816;SDS011;69411;45.656;11.740;2023-04-25T12:47:04;2.97;;;1.88;;
64816;SDS011;69411;45.656;11.740;2023-04-25T12:49:30;1.90;;;1.60;;
64816;SDS011;69411;45.656;11.740;2023-04-25T12:51:57;2.53;;;1.92;;
64816;SDS011;69411;45.656;11.740;2023-04-25T12:54:23;3.55;;;2.10;;
64816;SDS011;69411;45.656;11.740;2023-04-25T12:56:49;2.78;;;2.15;;
64816;SDS011;69411;45.656;11.740;2023-04-25T12:59:16;2.13;;;1.92;;
64816;SDS011;69411;45.656;11.740;2023-04-25T13:01:46;11.90;;;9.05;;
64816;SDS011;69411;45.656;11.740;2023-04-25T13:04:12;3.50;;;2.03;;
64816;SDS011;69411;45.656;11.740;2023-04-25T13:06:39;2.47;;;2.10;;
64816;SDS011;69411;45.656;11.740;2023-04-25T13:09:07;2.15;;;1.92;;
64816;SDS011;69411;45.656;11.740;2023-04-25T13:11:33;1.73;;;1.63;;
64816;SDS011;69411;45.656;11.740;2023-04-25T13:14:00;3.25;;;1.85;;
64816;SDS011;69411;45.656;11.740;2023-04-25T13:16:27;3.28;;;2.08;;
64816;SDS011;69411;45.656;11.740;2023-04-25T13:18:53;3.00;;;1.77;;
64816;SDS011;69411;45.656;11.740;2023-04-25T13:21:19;2.17;;;1.98;;
64816;SDS011;69411;45.656;11.740;2023-04-25T13:23:44;2.15;;;1.65;;
64816;SDS011;69411;45.656;11.740;2023-04-25T13:26:11;2.92;;;2.13;;
64816;SDS011;69411;45.656;11.740;2023-04-25T13:28:38;4.28;;;2.13;;
64816;SDS011;69411;45.656;11.740;2023-04-25T13:31:05;2.47;;;1.80;;
64816;SDS011;69411;45.656;11.740;2023-04-25T13:33:31;3.72;;;2.03;;
64816;SDS011;69411;45.656;11.740;2023-04-25T13:35:57;1.73;;;1.63;;
64816;SDS011;69411;45.656;11.740;2023-04-25T13:38:23;1.52;;;1.33;;
64816;SDS011;69411;45.656;11.740;2023-04-25T13:40:50;2.65;;;1.60;;
64816;SDS011;69411;45.656;11.740;2023-04-25T13:43:20;1.75;;;1.40;;
64816;SDS011;69411;45.656;11.740;2023-04-25T13:45:47;2.00;;;1.52;;
64816;SDS011;69411;45.656;11.740;2023-04-25T13:48:16;1.75;;;1.60;;
64816;SDS011;69411;45.656;11.740;2023-04-25T13:50:43;2.97;;;1.40;;
64816;SDS011;69411;45.656;11.740;2023-04-25T13:53:08;2.72;;;1.70;;
64816;SDS011;69411;45.656;11.740;2023-04-25T13:55:35;2.03;;;1.90;;
64816;SDS011;69411;45.656;11.740;2023-04-25T13:58:02;2.70;;;1.95;;
64816;SDS011;69411;45.656;11.740;2023-04-25T14:00:33;1.50;;;1.40;;
64816;SDS011;69411;45.656;11.740;2023-04-25T14:03:00;3.42;;;1.75;;
64816;SDS011;69411;45.656;11.740;2023-04-25T14:05:29;1.63;;;1.52;;
64816;SDS011;69411;45.656;11.740;2023-04-25T14:07:56;2.78;;;1.50;;
64816;SDS011;69411;45.656;11.740;2023-04-25T14:10:21;2.72;;;1.58;;
64816;SDS011;69411;45.656;11.740;2023-04-25T14:12:47;4.57;;;3.03;;
64816;SDS011;69411;45.656;11.740;2023-04-25T14:15:13;2.30;;;1.58;;
64816;SDS011;69411;45.656;11.740;2023-04-25T14:17:40;2.05;;;1.70;;
64816;SDS011;69411;45.656;11.740;2023-04-25T14:20:06;1.67;;;1.40;;
64816;SDS011;69411;45.656;11.740;2023-04-25T14:22:34;1.67;;;1.58;;
64816;SDS011;69411;45.656;11.740;2023-04-25T14:24:59;1.70;;;1.35;;
64816;SDS011;69411;45.656;11.740;2023-04-25T14:27:25;1.42;;;1.33;;
64816;SDS011;69411;45.656;11.740;2023-04-25T14:29:52;1.80;;;1.70;;
64816;SDS011;69411;45.656;11.740;2023-04-25T14:32:18;1.67;;;1.40;;
64816;SDS011;69411;45.656;11.740;2023-04-25T14:34:45;2.20;;;1.48;;
64816;SDS011;69411;45.656;11.740;2023-04-25T14:37:12;3.13;;;2.00;;
64816;SDS011;69411;45.656;11.740;2023-04-25T14:39:37;1.83;;;1.50;;
64816;SDS011;69411;45.656;11.740;2023-04-25T14:42:03;4.32;;;2.35;;
64816;SDS011;69411;45.656;11.740;2023-04-25T14:44:29;2.53;;;1.80;;
64816;SDS011;69411;45.656;11.740;2023-04-25T14:46:55;1.58;;;1.40;;
64816;SDS011;69411;45.656;11.740;2023-04-25T14:49:20;1.65;;;1.55;;
64816;SDS011;69411;45.656;11.740;2023-04-25T14:51:46;2.53;;;1.80;;
64816;SDS011;69411;45.656;11.740;2023-04-25T14:54:12;2.35;;;1.60;;
64816;SDS011;69411;45.656;11.740;2023-04-25T14:56:38;3.72;;;2.47;;
64816;SDS011;69411;45.656;11.740;2023-04-25T14:59:04;1.98;;;1.40;;
64816;SDS011;69411;45.656;11.740;2023-04-25T15:01:29;2.70;;;1.90;;
64816;SDS011;69411;45.656;11.740;2023-04-25T15:03:56;3.38;;;2.03;;